Time;durP1;ratioP1;P1;durP2;ratioP2;P2;SDS_P1;SDS_P2;PMS_P1;PMS_P2;Temp;Humidity;BMP_temperature;BMP_pressure;BME280_temperature;BME280_humidity;BME280_pressure;Samples;Min_cycle;Max_cycle;Signal;HPM_P1;HPM_P2
2023/04/13 00:00:44;;;;;;;5.20;4.05;;;;;;;19.40;55.96;99889.00;5053555;28;20407;-46
2023/04/13 00:03:11;;;;;;;6.35;4.18;;;;;;;19.40;56.15;99894.38;5055205;28;20045;-46
2023/04/13 00:05:40;;;;;;;6.40;3.60;;;;;;;19.41;56.36;99890.72;5055366;28;20049;-49
2023/04/13 00:08:07;;;;;;;5.30;4.10;;;;;;;19.40;56.19;99892.53;5054955;28;20060;-47
2023/04/13 00:10:35;;;;;;;5.45;4.38;;;;;;;19.40;56.21;99886.31;5055114;28;20048;-46
2023/04/13 00:13:04;;;;;;;5.47;4.18;;;;;;;19.39;56.14;99882.78;5054657;28;20048;-47
2023/04/13 00:15:35;;;;;;;5.47;3.80;;;;;;;19.40;56.09;99878.25;5054791;28;20490;-57
2023/04/13 00:18:05;;;;;;;5.55;4.00;;;;;;;19.40;56.15;99883.63;5054941;28;20071;-57
2023/04/13 00:20:33;;;;;;;4.85;3.95;;;;;;;19.39;56.15;99881.94;5055243;28;20063;-57
2023/04/13 00:23:01;;;;;;;5.32;3.83;;;;;;;19.40;56.02;99878.25;5054767;28;20503;-57
2023/04/13 00:25:29;;;;;;;6.35;4.10;;;;;;;19.39;56.17;99873.91;5054354;28;20480;-57
2023/04/13 00:27:56;;;;;;;5.65;4.28;;;;;;;19.40;56.15;99883.63;5053499;28;20048;-58
2023/04/13 00:30:27;;;;;;;4.47;3.88;;;;;;;19.39;55.96;99874.75;5053215;28;20049;-57
2023/04/13 00:32:56;;;;;;;5.65;4.05;;;;;;;19.39;55.93;99868.53;5054678;28;20045;-57
2023/04/13 00:35:23;;;;;;;5.15;4.40;;;;;;;19.39;56.04;99871.22;5054786;28;20056;-57
2023/04/13 00:37:52;;;;;;;5.60;3.95;;;;;;;19.39;55.86;99873.91;5054536;28;20049;-57
2023/04/13 00:40:19;;;;;;;5.38;3.85;;;;;;;19.39;55.97;99852.44;5054515;28;20048;-57
2023/04/13 00:42:49;;;;;;;5.75;4.00;;;;;;;19.39;55.93;99857.78;5054258;28;20060;-57
2023/04/13 00:45:17;;;;;;;5.85;3.72;;;;;;;19.39;55.76;99863.16;5053348;28;20056;-47
2023/04/13 00:47:46;;;;;;;5.15;3.88;;;;;;;19.39;55.96;99860.47;5054446;28;20395;-47
2023/04/13 00:50:17;;;;;;;7.50;4.03;;;;;;;19.38;55.86;99854.28;5054339;28;20041;-46
2023/04/13 00:52:47;;;;;;;5.78;4.28;;;;;;;19.38;55.89;99846.22;5054069;28;20387;-46
2023/04/13 00:55:19;;;;;;;5.47;4.30;;;;;;;19.39;55.64;99857.78;5052979;28;20037;-47
2023/04/13 00:57:48;;;;;;;5.43;4.00;;;;;;;19.38;55.87;99848.91;5054271;28;20045;-57
2023/04/13 01:00:17;;;;;;;5.95;4.00;;;;;;;19.39;55.78;99855.09;5052592;28;20041;-57
2023/04/13 01:02:44;;;;;;;6.22;3.90;;;;;;;19.38;55.80;99853.44;5053921;28;20051;-57
2023/04/13 01:05:15;;;;;;;5.82;4.00;;;;;;;19.37;55.74;99857.13;5054042;28;20056;-57
2023/04/13 01:08:14;;;;;;;5.20;3.67;;;;;;;19.38;55.60;99851.59;5053695;28;20061;-57
2023/04/13 01:11:02;;;;;;;5.20;4.05;;;;;;;19.37;55.49;99854.44;5053615;28;20052;-57
2023/04/13 01:13:47;;;;;;;9.63;4.28;;;;;;;19.36;55.68;99840.16;5052724;28;20049;-57
2023/04/13 01:16:19;;;;;;;4.60;3.67;;;;;;;19.36;55.53;99842.00;5053892;28;20407;-46
2023/04/13 01:18:51;;;;;;;5.07;4.40;;;;;;;19.36;55.55;99825.91;5053020;28;20049;-48
2023/04/13 01:21:24;;;;;;;5.45;4.22;;;;;;;19.36;55.49;99829.41;5052668;28;20049;-48
2023/04/13 01:23:51;;;;;;;;;;;;;;;19.36;55.41;99825.91;5054099;28;20487;-50
2023/04/13 01:26:21;;;;;;;5.07;3.92;;;;;;;19.36;55.45;99817.84;5052291;28;19927;-47
2023/04/13 01:28:50;;;;;;;5.60;3.67;;;;;;;19.36;55.47;99825.91;5053593;28;20052;-46
2023/04/13 01:31:19;;;;;;;6.30;3.65;;;;;;;19.36;55.61;99815.16;5052575;28;20502;-46
2023/04/13 01:33:48;;;;;;;5.75;4.22;;;;;;;19.35;55.44;99806.25;5053501;28;20048;-46
2023/04/13 01:36:16;;;;;;;4.93;4.00;;;;;;;19.36;55.48;99815.16;5052750;28;20053;-58
2023/04/13 01:38:45;;;;;;;5.80;4.05;;;;;;;19.36;55.49;99815.16;5051794;28;20056;-57
2023/04/13 01:41:15;;;;;;;5.53;4.05;;;;;;;19.36;55.57;99815.16;5052570;28;20041;-57
2023/04/13 01:43:45;;;;;;;7.40;5.30;;;;;;;19.36;55.53;99809.78;5051986;28;20049;-57
2023/04/13 01:46:20;;;;;;;6.05;4.30;;;;;;;19.35;55.81;99813.47;5052622;28;20052;-57
2023/04/13 01:49:15;;;;;;;6.43;4.18;;;;;;;19.35;55.54;99794.69;5053229;28;20072;-57
2023/04/13 01:52:21;;;;;;;6.38;4.57;;;;;;;19.34;55.50;99791.16;5058346;28;20060;-57
2023/04/13 01:54:50;;;;;;;6.05;4.07;;;;;;;19.35;55.48;99792.00;5052359;28;20053;-46
2023/04/13 01:57:18;;;;;;;7.13;4.68;;;;;;;19.35;55.43;99789.31;5053315;28;20045;-47
2023/04/13 01:59:46;;;;;;;5.32;3.85;;;;;;;19.34;55.42;99785.81;5051988;28;20056;-47
2023/04/13 02:02:17;;;;;;;5.93;4.85;;;;;;;19.35;55.44;99786.66;5052158;28;20048;-46
2023/04/13 02:04:45;;;;;;;7.80;4.95;;;;;;;19.35;55.45;99783.97;5053249;28;20048;-47
2023/04/13 02:07:12;;;;;;;4.97;3.63;;;;;;;19.34;55.41;99768.88;5051821;28;20060;-46
2023/04/13 02:09:45;;;;;;;5.68;4.50;;;;;;;19.34;55.42;99763.50;5052278;28;20049;-46
2023/04/13 02:12:15;;;;;;;5.38;3.92;;;;;;;19.35;55.30;99767.84;5052137;28;20045;-46
2023/04/13 02:14:42;;;;;;;6.68;4.50;;;;;;;19.34;55.42;99763.50;5056532;28;20049;-57
2023/04/13 02:17:10;;;;;;;4.47;3.63;;;;;;;19.34;55.43;99769.69;5056807;28;20057;-57
2023/04/13 02:19:39;;;;;;;5.85;4.68;;;;;;;19.33;55.26;99762.66;5055897;28;20057;-47
2023/04/13 02:22:08;;;;;;;5.85;4.13;;;;;;;19.34;55.30;99760.81;5055869;28;20049;-47
2023/04/13 02:24:35;;;;;;;5.22;4.25;;;;;;;19.34;55.34;99763.50;5055684;28;20048;-55
2023/04/13 02:27:03;;;;;;;6.10;3.80;;;;;;;19.34;55.22;99758.13;5039154;28;20065;-46
2023/04/13 02:29:31;;;;;;;4.93;4.03;;;;;;;19.34;55.40;99758.97;5057086;28;20045;-45
2023/04/13 02:31:59;;;;;;;6.25;4.43;;;;;;;19.34;55.29;99761.66;5056844;28;20045;-46
2023/04/13 02:34:26;;;;;;;5.60;4.60;;;;;;;19.33;55.31;99754.59;5055449;28;20053;-47
2023/04/13 02:36:55;;;;;;;8.43;4.30;;;;;;;19.33;55.41;99754.59;5055776;28;20057;-57
2023/04/13 02:39:22;;;;;;;5.35;4.28;;;;;;;19.33;55.53;99757.28;5055178;28;20060;-57
2023/04/13 02:41:50;;;;;;;6.22;4.63;;;;;;;19.33;55.45;99762.66;5055913;28;20128;-57
2023/04/13 02:44:21;;;;;;;4.53;4.05;;;;;;;19.33;55.49;99751.94;5055750;28;20052;-57
2023/04/13 02:46:54;;;;;;;6.32;4.53;;;;;;;19.33;55.40;99751.94;5054958;28;20052;-47
2023/04/13 02:49:23;;;;;;;5.55;4.13;;;;;;;19.34;55.27;99731.28;5056972;28;20053;-49
2023/04/13 02:52:15;;;;;;;5.05;4.40;;;;;;;19.33;55.42;99722.41;5055196;28;20056;-46
2023/04/13 02:54:54;;;;;;;3.75;3.35;;;;;;;19.33;55.32;99721.56;5054496;28;20053;-46
2023/04/13 02:57:25;;;;;;;4.55;4.00;;;;;;;19.33;55.31;99714.34;5055503;28;20053;-48
2023/04/13 02:59:55;;;;;;;5.47;4.00;;;;;;;19.33;55.36;99721.56;5055360;28;20053;-48
2023/04/13 03:02:28;;;;;;;5.72;4.35;;;;;;;19.33;55.37;99705.47;5055182;28;20053;-49
2023/04/13 03:04:55;;;;;;;6.28;4.38;;;;;;;19.33;55.15;99710.84;5054781;28;20053;-58
2023/04/13 03:07:27;;;;;;;5.10;4.20;;;;;;;19.32;55.04;99701.91;5055546;28;20053;-58
2023/04/13 03:09:54;;;;;;;4.43;3.55;;;;;;;19.32;55.25;99690.34;5054939;28;20492;-57
2023/04/13 03:12:25;;;;;;;5.50;4.80;;;;;;;19.32;55.13;99690.34;5054824;28;20056;-57
2023/04/13 03:14:52;;;;;;;5.38;4.57;;;;;;;19.31;55.40;99700.25;5038058;28;20052;-57
2023/04/13 03:17:21;;;;;;;5.90;4.55;;;;;;;19.32;55.27;99701.91;5055094;28;20053;-58
2023/04/13 03:19:50;;;;;;;5.35;4.53;;;;;;;19.32;55.05;99711.81;5054658;28;20500;-58
2023/04/13 03:22:20;;;;;;;4.82;4.32;;;;;;;19.32;55.25;99709.97;5054670;28;20045;-57
2023/04/13 03:24:48;;;;;;;5.75;4.70;;;;;;;19.33;55.39;99714.34;5053632;28;20049;-57
2023/04/13 03:27:23;;;;;;;5.88;4.55;;;;;;;19.32;55.22;99720.69;5054869;28;20060;-58
2023/04/13 03:29:53;;;;;;;5.75;4.15;;;;;;;19.32;55.16;99722.53;5054842;28;20056;-57
2023/04/13 03:32:21;;;;;;;5.28;4.30;;;;;;;19.33;55.15;99724.25;5056234;28;20056;-58
2023/04/13 03:34:56;;;;;;;6.22;4.40;;;;;;;19.32;55.35;99726.06;5054516;28;20061;-46
2023/04/13 03:37:28;;;;;;;5.93;4.35;;;;;;;19.31;55.20;99716.34;5054609;28;20045;-46
2023/04/13 03:40:00;;;;;;;5.50;4.40;;;;;;;19.32;55.36;99711.81;5054873;28;20075;-46
2023/04/13 03:42:33;;;;;;;5.22;4.47;;;;;;;19.32;55.24;99706.44;5054728;28;20479;-46
2023/04/13 03:45:00;;;;;;;6.05;4.57;;;;;;;19.32;55.33;99706.44;5055560;28;20536;-46
2023/04/13 03:47:28;;;;;;;4.97;4.05;;;;;;;19.31;55.49;99708.28;5054511;28;20120;-47
2023/04/13 03:49:55;;;;;;;5.95;4.63;;;;;;;19.32;55.30;99707.28;5054373;28;20057;-46
2023/04/13 03:52:22;;;;;;;5.82;4.38;;;;;;;19.32;55.21;99709.13;5054566;28;20049;-47
2023/04/13 03:54:56;;;;;;;5.25;4.38;;;;;;;19.30;55.37;99703.94;5054474;28;20102;-47
2023/04/13 03:57:26;;;;;;;5.95;4.88;;;;;;;19.31;55.31;99705.59;5054468;28;20525;-47
2023/04/13 03:59:55;;;;;;;5.25;4.47;;;;;;;19.31;54.96;99700.25;5054321;28;20515;-46
2023/04/13 04:02:40;;;;;;;6.10;4.78;;;;;;;19.31;55.08;99692.19;5061936;28;20475;-46
2023/04/13 04:05:13;;;;;;;6.50;4.40;;;;;;;19.30;55.21;99693.19;5054342;28;20053;-58
2023/04/13 04:07:42;;;;;;;7.55;4.95;;;;;;;19.31;55.25;99694.03;5054080;28;20064;-58
2023/04/13 04:10:10;;;;;;;6.53;5.35;;;;;;;19.30;55.09;99687.00;5037268;28;20406;-57
2023/04/13 04:12:37;;;;;;;6.88;5.07;;;;;;;19.31;55.23;99691.34;5053306;28;20049;-58
2023/04/13 04:15:07;;;;;;;6.03;4.95;;;;;;;19.31;55.28;99694.88;5053886;28;20057;-58
2023/04/13 04:17:36;;;;;;;5.22;4.10;;;;;;;19.30;55.20;99693.19;5053627;28;20087;-58
2023/04/13 04:20:06;;;;;;;6.82;4.55;;;;;;;19.29;55.18;99679.94;5053813;28;20438;-57
2023/04/13 04:22:35;;;;;;;4.65;4.15;;;;;;;19.29;55.02;99688.84;5053057;28;20049;-58
2023/04/13 04:25:03;;;;;;;6.07;4.03;;;;;;;19.30;55.30;99682.47;5053562;28;20403;-57
2023/04/13 04:27:37;;;;;;;6.30;4.30;;;;;;;19.31;55.35;99683.31;5053403;28;20056;-57
2023/04/13 04:30:09;;;;;;;5.22;3.90;;;;;;;19.32;55.31;99687.66;5052982;28;20056;-57
2023/04/13 04:32:39;;;;;;;5.28;3.95;;;;;;;19.31;55.39;99689.50;5053666;28;20041;-58
2023/04/13 04:35:13;;;;;;;5.22;4.03;;;;;;;19.31;55.34;99694.03;5053347;28;20052;-57
2023/04/13 04:37:49;;;;;;;9.20;4.65;;;;;;;19.31;55.30;99694.88;5052953;28;20052;-58
2023/04/13 04:40:18;;;;;;;6.32;4.38;;;;;;;19.31;55.25;99694.88;5053592;28;20056;-57
2023/04/13 04:42:45;;;;;;;7.45;4.10;;;;;;;19.31;55.23;99699.41;5053504;28;20052;-57
2023/04/13 04:45:26;;;;;;;6.30;4.20;;;;;;;19.31;55.27;99710.13;5053436;28;20052;-57
2023/04/13 04:47:56;;;;;;;4.93;3.95;;;;;;;19.31;55.27;99710.13;5053177;28;20053;-57
2023/04/13 04:50:25;;;;;;;6.35;4.35;;;;;;;19.30;55.02;99711.16;5053202;28;20519;-57
2023/04/13 04:53:00;;;;;;;5.43;4.18;;;;;;;19.30;54.86;99714.66;5053029;28;20041;-58
2023/04/13 04:55:28;;;;;;;6.85;4.85;;;;;;;19.28;54.65;99719.34;5052954;28;20059;-48
2023/04/13 04:57:55;;;;;;;5.78;4.28;;;;;;;19.29;55.06;99734.47;5037040;28;20395;-47
2023/04/13 05:00:25;;;;;;;4.60;3.83;;;;;;;19.29;54.94;99744.34;5053898;28;20049;-47
2023/04/13 05:03:00;;;;;;;6.32;3.80;;;;;;;19.29;54.97;99731.78;5052557;28;20495;-46
2023/04/13 05:05:31;;;;;;;6.47;4.00;;;;;;;19.30;54.95;99735.28;5052381;28;20048;-46
2023/04/13 05:08:04;;;;;;;4.97;3.35;;;;;;;19.29;55.08;99728.25;5053058;28;20061;-46
2023/04/13 05:10:42;;;;;;;5.18;4.18;;;;;;;19.29;55.06;99723.72;5052962;28;20076;-48
2023/04/13 05:13:09;;;;;;;7.40;4.43;;;;;;;19.29;54.61;99722.88;5053093;28;20053;-47
2023/04/13 05:15:37;;;;;;;5.63;4.82;;;;;;;19.28;54.88;99719.34;5052888;28;20045;-57
2023/04/13 05:18:04;;;;;;;5.65;3.80;;;;;;;19.29;54.77;99717.53;5052947;28;20395;-58
2023/04/13 05:20:33;;;;;;;5.13;3.90;;;;;;;19.29;54.60;99720.19;5052847;28;20052;-58
2023/04/13 05:23:04;;;;;;;4.85;3.95;;;;;;;19.28;54.65;99730.06;5052930;28;20052;-58
2023/04/13 05:25:38;;;;;;;5.88;3.72;;;;;;;19.28;54.78;99735.44;5052411;28;20060;-57
2023/04/13 05:28:13;;;;;;;5.28;4.00;;;;;;;19.27;54.79;99739.97;5052824;28;20061;-57
2023/04/13 05:30:41;;;;;;;5.20;4.10;;;;;;;19.26;54.80;99743.66;5052039;28;20057;-57
2023/04/13 05:33:09;;;;;;;5.07;4.15;;;;;;;19.28;54.70;99751.53;5052120;28;20041;-57
2023/04/13 05:35:38;;;;;;;5.50;4.00;;;;;;;19.27;54.71;99744.50;5052473;28;20048;-57
2023/04/13 05:38:08;;;;;;;5.63;3.88;;;;;;;19.27;54.51;99744.50;5052677;28;20052;-57
2023/04/13 05:40:35;;;;;;;5.80;4.35;;;;;;;19.27;54.78;99748.00;5052272;28;20052;-57
2023/04/13 05:43:04;;;;;;;6.82;4.28;;;;;;;19.26;54.85;99751.69;5052186;28;20045;-57
2023/04/13 05:45:35;;;;;;;4.25;3.85;;;;;;;19.26;54.78;99754.38;5052842;28;20411;-47
2023/04/13 05:48:07;;;;;;;4.75;4.25;;;;;;;19.26;54.46;99759.75;5051192;28;20049;-46
2023/04/13 05:50:34;;;;;;;6.55;4.10;;;;;;;19.25;54.45;99755.41;5052458;28;20395;-48
2023/04/13 05:53:04;;;;;;;4.55;3.75;;;;;;;19.26;54.68;99751.69;5051963;28;20056;-46
2023/04/13 05:55:42;;;;;;;4.72;3.80;;;;;;;19.26;54.56;99740.97;5052580;28;20056;-57
2023/04/13 05:58:13;;;;;;;5.15;3.85;;;;;;;19.26;54.54;99732.09;5052873;28;20053;-57
2023/04/13 06:00:42;;;;;;;6.10;4.10;;;;;;;19.25;54.75;99719.66;5052248;28;20419;-57
2023/04/13 06:03:14;;;;;;;4.43;3.58;;;;;;;19.25;54.68;99728.56;5052204;28;20512;-57
2023/04/13 06:05:42;;;;;;;4.72;3.70;;;;;;;19.25;54.37;99747.34;5053243;28;20060;-57
2023/04/13 06:08:10;;;;;;;5.43;3.63;;;;;;;19.25;54.71;99754.56;5053379;28;20055;-57
2023/04/13 06:10:38;;;;;;;5.95;3.83;;;;;;;19.25;54.58;99746.50;5052308;28;20049;-57
2023/04/13 06:13:07;;;;;;;4.53;3.78;;;;;;;19.25;54.64;99733.94;5052985;28;20049;-57
2023/04/13 06:15:35;;;;;;;4.22;3.35;;;;;;;19.25;54.29;99728.56;5053059;28;20052;-57
2023/04/13 06:18:02;;;;;;;4.22;3.50;;;;;;;19.24;54.40;99721.53;5053123;28;20048;-57
2023/04/13 06:20:33;;;;;;;5.85;3.70;;;;;;;19.25;54.56;99704.41;5053361;28;20391;-57
2023/04/13 06:23:00;;;;;;;5.15;3.75;;;;;;;19.24;54.53;99699.19;5052151;28;20045;-57
2023/04/13 06:25:29;;;;;;;5.10;3.90;;;;;;;19.24;54.48;99696.50;5052118;28;20049;-48
2023/04/13 06:28:00;;;;;;;5.50;3.88;;;;;;;19.24;54.46;99710.78;5052113;28;20053;-49
2023/04/13 06:30:29;;;;;;;5.22;3.75;;;;;;;19.23;54.38;99695.66;5052208;28;20056;-49
2023/04/13 06:32:59;;;;;;;4.68;3.67;;;;;;;19.25;54.39;99679.44;5052007;28;20049;-48
2023/04/13 06:35:29;;;;;;;4.90;3.70;;;;;;;19.23;54.60;99679.56;5052276;28;20045;-47
2023/04/13 06:37:59;;;;;;;4.65;3.55;;;;;;;19.23;54.44;99671.50;5051734;28;20058;-47
2023/04/13 06:40:33;;;;;;;3.90;3.40;;;;;;;19.24;54.52;99683.09;5052128;28;20064;-49
2023/04/13 06:43:04;;;;;;;3.72;3.33;;;;;;;19.23;54.63;99694.81;5052066;28;20041;-47
2023/04/13 06:45:47;;;;;;;5.28;4.15;;;;;;;19.24;54.49;99715.28;5051468;28;20053;-57
2023/04/13 06:48:20;;;;;;;3.58;3.13;;;;;;;19.24;54.77;99697.38;5052079;28;20053;-57
2023/04/13 06:50:54;;;;;;;5.65;4.22;;;;;;;19.25;54.64;99692.84;5052041;28;20057;-57
2023/04/13 06:53:22;;;;;;;4.30;3.30;;;;;;;19.25;54.89;99682.09;5051903;28;20049;-57
2023/04/13 06:55:51;;;;;;;5.95;3.60;;;;;;;19.25;55.02;99677.56;5052126;28;20411;-48
2023/04/13 06:58:19;;;;;;;5.90;3.60;;;;;;;19.26;54.95;99694.50;5051484;28;20045;-46
2023/04/13 07:00:48;;;;;;;5.60;4.50;;;;;;;19.26;54.71;99700.72;5053723;28;20138;-50
2023/04/13 07:03:16;;;;;;;6.63;4.50;;;;;;;19.29;54.11;99722.88;5056437;28;20048;-47
2023/04/13 07:05:44;;;;;;;5.95;4.75;;;;;;;19.29;54.10;99722.88;5056863;28;20049;-48
2023/04/13 07:08:15;;;;;;;6.10;3.60;;;;;;;19.31;54.74;99720.88;5054457;28;20053;-48
2023/04/13 07:10:45;;;;;;;6.53;4.45;;;;;;;19.31;54.43;99719.03;5056017;28;20057;-47
2023/04/13 07:13:20;;;;;;;6.07;4.88;;;;;;;19.34;54.19;99716.03;5059668;28;20051;-47
2023/04/13 07:15:48;;;;;;;5.90;4.25;;;;;;;19.34;54.33;99704.47;5076206;28;20049;-54
2023/04/13 07:18:15;;;;;;;5.75;4.40;;;;;;;19.36;54.09;99689.03;5076732;28;20475;-55
2023/04/13 07:20:43;;;;;;;4.50;3.95;;;;;;;19.36;54.35;99679.13;5076032;28;20053;-58
2023/04/13 07:23:12;;;;;;;7.22;4.20;;;;;;;19.38;54.79;99687.03;5073663;28;20048;-55
2023/04/13 07:25:40;;;;;;;5.68;4.22;;;;;;;19.38;54.47;99679.81;5074281;28;20052;-56
2023/04/13 07:28:15;;;;;;;6.90;4.05;;;;;;;19.39;55.26;99669.91;5074646;28;20055;-54
2023/04/13 07:30:46;;;;;;;5.80;4.95;;;;;;;19.40;54.25;99679.66;5074521;28;20048;-57
2023/04/13 07:33:14;;;;;;;10.38;4.93;;;;;;;19.40;54.87;99683.16;5075125;28;20049;-57
2023/04/13 07:35:42;;;;;;;7.50;4.40;;;;;;;19.40;54.64;99688.53;5074659;28;20053;-47
2023/04/13 07:38:12;;;;;;;5.82;3.75;;;;;;;19.40;55.66;99687.69;5074863;28;20051;-48
2023/04/13 07:40:40;;;;;;;7.50;5.10;;;;;;;19.41;54.05;99687.56;5073977;28;20052;-49
2023/04/13 07:43:10;;;;;;;6.57;5.82;;;;;;;19.42;53.72;99680.34;5074353;28;20047;-47
2023/04/13 07:45:40;;;;;;;8.40;6.70;;;;;;;19.41;53.76;99671.47;5056859;28;20059;-56
2023/04/13 07:48:08;;;;;;;9.30;6.30;;;;;;;19.41;53.56;99670.63;5054261;28;20049;-56
2023/04/13 07:50:51;;;;;;;7.03;6.28;;;;;;;19.40;53.31;99661.69;5053869;28;20049;-58
2023/04/13 07:53:22;;;;;;;8.70;6.65;;;;;;;19.39;53.47;99659.19;5053431;28;20047;-47
2023/04/13 07:55:51;;;;;;;9.13;6.63;;;;;;;19.39;53.75;99646.59;5055168;28;20052;-46
2023/04/13 07:58:19;;;;;;;8.75;7.10;;;;;;;19.40;53.39;99612.56;5054226;28;20048;-48
2023/04/13 08:00:46;;;;;;;8.35;7.05;;;;;;;19.39;53.41;99616.25;5054873;28;20055;-50
2023/04/13 08:03:14;;;;;;;13.68;6.88;;;;;;;19.39;53.41;99610.88;5054179;28;20535;-46
2023/04/13 08:05:46;;;;;;;10.20;7.50;;;;;;;19.37;53.72;99608.38;5053115;28;20049;-47
2023/04/13 08:08:13;;;;;;;9.00;7.50;;;;;;;19.39;53.80;99592.09;5055054;28;20056;-48
2023/04/13 08:10:41;;;;;;;9.13;7.50;;;;;;;19.40;53.82;99591.09;5052550;28;20072;-48
2023/04/13 08:13:08;;;;;;;9.82;7.20;;;;;;;19.40;54.11;99591.09;5053217;28;20056;-47
2023/04/13 08:15:36;;;;;;;8.80;7.05;;;;;;;19.41;53.93;99595.47;5053346;28;20053;-48
2023/04/13 08:18:05;;;;;;;10.70;8.00;;;;;;;19.41;53.95;99590.09;5054641;28;20044;-50
2023/04/13 08:20:34;;;;;;;9.63;7.75;;;;;;;19.41;54.23;99595.47;5053494;28;20052;-48
2023/04/13 08:23:02;;;;;;;12.45;8.23;;;;;;;19.42;53.99;99592.63;5053305;28;20069;-48
2023/04/13 08:25:30;;;;;;;11.02;8.45;;;;;;;19.43;53.95;99571.97;5054392;28;20051;-47
2023/04/13 08:27:57;;;;;;;11.18;7.75;;;;;;;19.44;54.18;99570.97;5054742;28;20049;-51
2023/04/13 08:30:25;;;;;;;13.50;8.73;;;;;;;19.44;54.01;99571.81;5053685;28;20056;-48
2023/04/13 08:32:57;;;;;;;10.93;9.02;;;;;;;19.45;54.16;99572.69;5053209;28;20415;-47
2023/04/13 08:35:26;;;;;;;13.48;9.43;;;;;;;19.45;53.85;99560.09;5053329;28;20041;-48
2023/04/13 08:38:01;;;;;;;14.00;9.20;;;;;;;19.45;53.93;99556.56;5037757;28;20049;-47
2023/04/13 08:40:31;;;;;;;15.40;9.40;;;;;;;19.46;54.00;99552.88;5036549;28;20483;-47
2023/04/13 08:43:00;;;;;;;12.02;10.07;;;;;;;19.47;54.17;99557.22;5037089;28;20069;-47
2023/04/13 08:45:33;;;;;;;11.88;10.05;;;;;;;19.48;54.18;99561.59;5052427;28;20053;-48
2023/04/13 08:48:01;;;;;;;13.45;9.50;;;;;;;19.48;54.22;99564.28;5052849;28;20072;-49
2023/04/13 08:50:32;;;;;;;10.70;8.32;;;;;;;19.48;54.17;99564.28;5052909;28;20064;-48
2023/04/13 08:53:00;;;;;;;11.40;9.60;;;;;;;19.49;54.30;99557.91;5052939;28;20061;-49
2023/04/13 08:55:28;;;;;;;10.60;8.63;;;;;;;19.50;54.20;99559.59;5052933;28;20425;-48
2023/04/13 08:58:02;;;;;;;9.57;8.20;;;;;;;19.51;54.50;99556.72;5052688;28;20434;-47
2023/04/13 09:00:30;;;;;;;8.38;6.50;;;;;;;19.52;54.62;99555.72;5052816;28;20060;-48
2023/04/13 09:03:06;;;;;;;14.35;8.35;;;;;;;19.54;54.53;99552.91;5053804;28;20095;-47
2023/04/13 09:05:43;;;;;;;10.13;7.40;;;;;;;19.55;54.59;99559.94;5053873;28;20060;-57
2023/04/13 09:08:12;;;;;;;10.77;8.52;;;;;;;19.55;54.61;99567.16;5052828;28;20048;-56
2023/04/13 09:10:43;;;;;;;10.32;7.97;;;;;;;19.54;54.44;99566.31;5052583;28;20053;-56
2023/04/13 09:13:10;;;;;;;10.50;8.10;;;;;;;19.56;54.76;99576.88;5052545;28;20053;-50
2023/04/13 09:15:39;;;;;;;10.90;8.50;;;;;;;19.56;54.90;99574.19;5053805;28;20056;-45
2023/04/13 09:18:22;;;;;;;11.18;9.20;;;;;;;19.55;54.65;99578.72;5052433;28;20053;-46
2023/04/13 09:20:59;;;;;;;13.40;9.65;;;;;;;19.56;54.90;99572.34;5051565;28;20056;-50
2023/04/13 09:23:26;;;;;;;9.90;7.88;;;;;;;19.56;54.80;99566.97;5052023;28;20364;-48
2023/04/13 09:26:07;;;;;;;9.75;7.97;;;;;;;19.57;54.76;99559.75;5052513;28;20053;-51
2023/04/13 09:28:48;;;;;;;11.00;7.60;;;;;;;19.58;54.86;99550.72;5053177;28;20045;-58
2023/04/13 09:31:16;;;;;;;8.50;7.00;;;;;;;19.58;54.77;99546.19;5053467;28;20049;-58
2023/04/13 09:33:45;;;;;;;12.45;8.30;;;;;;;19.59;54.85;99552.41;5053535;28;20056;-57
2023/04/13 09:36:14;;;;;;;11.43;7.30;;;;;;;19.60;55.08;99559.44;5053563;28;20049;-49
2023/04/13 09:38:43;;;;;;;8.55;7.53;;;;;;;19.60;54.90;99554.91;5053552;28;20052;-47
2023/04/13 09:41:11;;;;;;;9.40;7.68;;;;;;;19.61;54.94;99545.91;5053433;28;20045;-47
2023/04/13 09:43:39;;;;;;;10.30;7.40;;;;;;;19.61;54.76;99542.34;5053703;28;20053;-46
2023/04/13 09:46:12;;;;;;;7.88;7.07;;;;;;;19.61;54.83;99540.53;5053831;28;20053;-57
2023/04/13 09:48:40;;;;;;;8.00;7.10;;;;;;;19.61;54.81;99545.91;5053642;28;20510;-57
2023/04/13 09:51:08;;;;;;;8.88;6.95;;;;;;;19.60;54.73;99536.13;5052190;28;20045;-58
2023/04/13 09:53:41;;;;;;;11.43;7.93;;;;;;;19.61;55.02;99534.28;5053583;28;20060;-51
2023/04/13 09:56:08;;;;;;;;;;;;;;;19.60;54.86;99521.84;5053954;28;20048;-47
2023/04/13 09:58:43;;;;;;;8.32;6.40;;;;;;;19.60;54.80;99522.69;5052961;28;19920;-50
2023/04/13 10:01:13;;;;;;;8.25;6.78;;;;;;;19.60;54.97;99521.84;5053326;28;20052;-47
2023/04/13 10:03:42;;;;;;;8.65;6.70;;;;;;;19.59;54.83;99515.66;5053423;28;20475;-46
2023/04/13 10:06:09;;;;;;;8.52;7.20;;;;;;;19.59;54.90;99522.88;5053555;28;20045;-47
2023/04/13 10:08:45;;;;;;;8.70;6.07;;;;;;;19.59;54.64;99525.56;5053477;28;20049;-47
2023/04/13 10:11:13;;;;;;;9.40;6.88;;;;;;;19.58;55.04;99529.25;5053412;28;20056;-48
2023/04/13 10:13:49;;;;;;;10.38;6.90;;;;;;;19.57;54.91;99530.22;5053108;28;20041;-47
2023/04/13 10:16:46;;;;;;;8.02;5.60;;;;;;;19.58;54.83;99523.88;5053427;28;20072;-54
2023/04/13 10:19:20;;;;;;;9.20;6.65;;;;;;;19.58;54.85;99529.25;5053003;28;20049;-56
2023/04/13 10:21:50;;;;;;;8.77;5.90;;;;;;;19.57;54.78;99512.31;5052738;28;20060;-56
2023/04/13 10:24:18;;;;;;;12.13;7.03;;;;;;;19.58;54.94;99515.81;5052511;28;20048;-56
2023/04/13 10:26:46;;;;;;;9.98;7.55;;;;;;;19.57;55.02;99519.50;5052495;28;20057;-57
2023/04/13 10:29:15;;;;;;;8.27;6.25;;;;;;;19.56;54.86;99518.66;5052557;28;20056;-56
2023/04/13 10:31:47;;;;;;;9.88;6.53;;;;;;;19.56;54.96;99518.66;5052519;28;20048;-57
2023/04/13 10:34:23;;;;;;;10.60;6.95;;;;;;;19.56;54.92;99513.28;5053192;28;20052;-56
2023/04/13 10:36:53;;;;;;;8.32;6.47;;;;;;;19.56;54.85;99505.22;5056595;28;20053;-56
2023/04/13 10:39:26;;;;;;;8.25;6.28;;;;;;;19.56;54.81;99512.44;5056437;28;20049;-56
2023/04/13 10:42:07;;;;;;;7.70;5.90;;;;;;;19.54;54.62;99507.25;5055191;28;20067;-57
2023/04/13 10:44:49;;;;;;;7.18;6.43;;;;;;;19.54;54.65;99504.56;5056322;28;20475;-55
2023/04/13 10:47:19;;;;;;;9.13;6.20;;;;;;;19.54;54.78;99491.16;5056180;28;20056;-56
2023/04/13 10:49:49;;;;;;;9.60;6.72;;;;;;;19.54;54.84;99484.94;5056445;28;20411;-57
2023/04/13 10:52:16;;;;;;;8.43;6.00;;;;;;;19.54;54.74;99490.31;5056167;28;20052;-56
2023/04/13 10:54:44;;;;;;;7.63;6.72;;;;;;;19.51;54.86;99491.47;5056087;28;20522;-50
2023/04/13 10:57:11;;;;;;;8.25;6.72;;;;;;;19.52;54.70;99487.78;5056098;28;20048;-52
2023/04/13 10:59:48;;;;;;;9.48;6.00;;;;;;;19.52;54.75;99487.78;5056103;28;20064;-48
2023/04/13 11:02:30;;;;;;;7.25;5.80;;;;;;;19.51;54.70;99480.75;5056649;28;20049;-48
2023/04/13 11:04:58;;;;;;;;;;;;;;;19.50;54.60;99471.84;5057206;28;20043;-47
2023/04/13 11:07:25;;;;;;;7.93;5.68;;;;;;;19.51;54.62;99470.00;5056579;28;19944;-47
2023/04/13 11:09:57;;;;;;;11.68;6.03;;;;;;;19.51;54.63;99464.63;5055428;28;20123;-49
2023/04/13 11:12:27;;;;;;;13.35;11.02;;;;;;;19.50;54.85;99453.06;5055928;28;20045;-47
2023/04/13 11:14:55;;;;;;;9.82;7.75;;;;;;;19.48;54.97;99455.06;5056003;28;20391;-48
2023/04/13 11:17:22;;;;;;;9.82;7.75;;;;;;;19.46;54.86;99453.56;5056118;28;20044;-48
2023/04/13 11:19:52;;;;;;;9.52;7.05;;;;;;;19.46;54.98;99453.56;5055993;28;20060;-47
2023/04/13 11:22:24;;;;;;;11.27;7.57;;;;;;;19.46;54.98;99457.09;5055887;28;20045;-48
2023/04/13 11:24:52;;;;;;;8.35;6.82;;;;;;;19.47;55.56;99452.56;5055698;28;20475;-47
2023/04/13 11:27:21;;;;;;;8.60;7.28;;;;;;;19.47;58.55;99453.38;5054989;28;20387;-46
2023/04/13 11:29:59;;;;;;;8.10;6.28;;;;;;;19.47;59.57;99460.59;5055788;28;20041;-46
2023/04/13 11:32:26;;;;;;;9.68;7.05;;;;;;;19.46;59.73;99461.63;5055357;28;20053;-46
2023/04/13 11:35:08;;;;;;;9.07;7.43;;;;;;;19.45;60.66;99455.41;5055792;28;20037;-52
2023/04/13 11:37:40;;;;;;;10.50;6.95;;;;;;;19.44;60.43;99442.13;5055278;28;20503;-51
2023/04/13 11:40:11;;;;;;;8.70;6.88;;;;;;;19.43;60.67;99437.78;5055464;28;20045;-50
2023/04/13 11:42:41;;;;;;;8.55;7.07;;;;;;;19.42;60.76;99444.16;5055662;28;20045;-50
2023/04/13 11:45:10;;;;;;;8.82;7.13;;;;;;;19.42;60.77;99444.16;5054819;28;20045;-51
2023/04/13 11:47:37;;;;;;;8.80;6.60;;;;;;;19.41;61.11;99450.56;5055004;28;20053;-55
2023/04/13 11:50:06;;;;;;;12.27;7.78;;;;;;;19.40;61.86;99457.72;5055236;28;20052;-54